Huvudsida
METAR-TAF:

METAR-TAF

Flygplatser :

Stords flygplats. Sørstokken

Stords, Norge

latitud: 59-48N, longitud: 005-21E, höjd: 49 m

Aktuellt väderrapport

Denna rapport gjordes för 20 minuter sedan, klockan 18:20 UTC
Vind 2 kt varierande vindriktning
Temperatur 1°C
Fuktighet 69%
Tryck 1030 hPa
Sikt 10 km eller mer
Inga moln under 1 500 m eller inga cumulonimbus

METAR: ENSO 131820Z VRB02KT CAVOK 01/M04 Q1030

Tid: 19:40 (18:40 UTC)

Väderprognos

Denna rapport gjordes för 1 timme och 40 minuter sedan, klockan 17:00 UTC
Prognos gäller från 13 kl. 18 UTC till 13 kl. 21 UTC
Vind 6 kt varierande vindriktning
Sikt 10 km eller mer
Inga moln under 1 500 m eller inga cumulonimbus

TAF: ENSO 131700Z 1318/1321 VRB06KT CAVOK

Aktuella väderrapporter och prognoser från 4000 flygplatser (METAR- och TAF-rapporter).

De tillgängliga stationerna syns som gula och röda prickar på kartan.

För musen över prickarna för att se namnen på stationerna.

Klicka sedan för att få väderrapporter och prognoser.

För att ändra kartan: Klicka på de gröna knapparna med ett svart kors på för att zooma in; den gröna knappen med ett streck på för att zooma ut; eller på de gröna pilarna för angränsande kartor.


METAR-TAF: